Time,TemperatureF,DewpointF,PressureIn,WindDirection,WindDirectionDegrees,WindSpeedMPH,WindSpeedGustMPH,Humidity,HourlyPrecipIn,Conditions,Clouds,dailyrainin,SoftwareType,DateUTC
2013-04-28 00:00:00,68.3,66.5,29.98,North,-999,0.0,0.0,94,0.00,,,-99.99,WeatherLink 5.6,2013-04-28 05:00:00,
2013-04-28 00:30:00,67.8,66.3,29.97,North,-999,0.0,0.0,95,0.00,,,-99.99,WeatherLink 5.6,2013-04-28 05:30:00,
2013-04-28 01:00:00,68.9,67.7,29.97,SE,135,1.0,4.0,96,0.00,,,-99.99,WeatherLink 5.6,2013-04-28 06:00:00,
2013-04-28 01:30:00,68.1,66.6,29.97,SSE,157,0.0,2.0,95,0.00,,,-99.99,WeatherLink 5.6,2013-04-28 06:30:00,
2013-04-28 02:00:00,67.1,65.9,29.95,North,-999,0.0,0.0,96,0.00,,,-99.99,WeatherLink 5.6,2013-04-28 07:00:00,
2013-04-28 02:30:00,66.8,65.6,29.96,North,-999,0.0,0.0,96,0.00,,,-99.99,WeatherLink 5.6,2013-04-28 07:30:00,
2013-04-28 03:00:00,67.3,66.1,29.95,North,-999,0.0,0.0,96,0.00,,,-99.99,WeatherLink 5.6,2013-04-28 08:00:00,
2013-04-28 03:30:00,67.6,66.4,29.95,North,-999,0.0,0.0,96,0.00,,,-99.99,WeatherLink 5.6,2013-04-28 08:30:00,
2013-04-28 04:00:00,67.9,66.7,29.95,North,-999,0.0,0.0,96,0.00,,,-99.99,WeatherLink 5.6,2013-04-28 09:00:00,
2013-04-28 04:30:00,68.4,67.2,29.94,SSE,157,0.0,1.0,96,0.00,,,-99.99,WeatherLink 5.6,2013-04-28 09:30:00,
2013-04-28 05:00:00,68.4,67.2,29.94,North,-999,0.0,0.0,96,0.00,,,-99.99,WeatherLink 5.6,2013-04-28 10:00:00,
2013-04-28 05:30:00,68.4,67.2,29.93,North,-999,0.0,0.0,96,0.00,,,-99.99,WeatherLink 5.6,2013-04-28 10:30:00,
2013-04-28 06:00:00,68.6,67.7,29.94,North,-999,0.0,0.0,97,0.00,,,-99.99,WeatherLink 5.6,2013-04-28 11:00:00,
2013-04-28 06:30:00,70.1,69.2,29.94,SE,135,1.0,5.0,97,0.00,,,-99.99,WeatherLink 5.6,2013-04-28 11:30:00,
2013-04-28 07:00:00,70.6,69.7,29.94,SE,135,2.0,5.0,97,0.00,,,-99.99,WeatherLink 5.6,2013-04-28 12:00:00,
2013-04-28 07:30:00,71.5,70.6,29.94,SSE,157,2.0,5.0,97,0.00,,,-99.99,WeatherLink 5.6,2013-04-28 12:30:00,
2013-04-28 08:00:00,72.5,71.3,29.94,SE,135,1.0,4.0,96,0.00,,,-99.99,WeatherLink 5.6,2013-04-28 13:00:00,
2013-04-28 08:30:00,73.3,69.5,29.94,South,180,3.0,12.0,88,0.00,,,-99.99,WeatherLink 5.6,2013-04-28 13:30:00,
2013-04-28 09:00:00,74.6,70.1,29.94,SSW,202,4.0,12.0,86,0.00,,,-99.99,WeatherLink 5.6,2013-04-28 14:00:00,
2013-04-28 09:30:00,75.3,70.5,29.94,SSW,202,5.0,14.0,85,0.00,,,-99.99,WeatherLink 5.6,2013-04-28 14:30:00,
2013-04-28 10:00:00,75.3,70.5,29.94,SSW,202,6.0,17.0,85,0.00,,,-99.99,WeatherLink 5.6,2013-04-28 15:00:00,
2013-04-28 10:30:00,76.0,70.8,29.95,SSW,202,5.0,15.0,84,0.00,,,-99.99,WeatherLink 5.6,2013-04-28 15:30:00,
2013-04-28 11:00:00,76.3,71.1,29.95,SSW,202,5.0,13.0,84,0.00,,,-99.99,WeatherLink 5.6,2013-04-28 16:00:00,
2013-04-28 11:30:00,77.0,71.1,29.94,SSW,202,6.0,14.0,82,0.00,,,-99.99,WeatherLink 5.6,2013-04-28 16:30:00,
2013-04-28 12:00:00,75.6,70.8,29.94,SSW,202,6.0,15.0,85,0.00,,,-99.99,WeatherLink 5.6,2013-04-28 17:00:00,
2013-04-28 12:30:00,75.8,71.0,29.94,SSW,202,5.0,15.0,85,0.00,,,-99.99,WeatherLink 5.6,2013-04-28 17:30:00,
2013-04-28 13:00:00,75.1,70.3,29.92,SSW,202,5.0,14.0,85,0.00,,,-99.99,WeatherLink 5.6,2013-04-28 18:00:00,
2013-04-28 13:30:00,75.1,70.3,29.93,South,180,2.0,11.0,85,0.00,,,-99.99,WeatherLink 5.6,2013-04-28 18:30:00,
2013-04-28 14:00:00,74.2,70.1,29.93,South,180,3.0,10.0,87,0.00,,,-99.99,WeatherLink 5.6,2013-04-28 19:00:00,
2013-04-28 14:30:00,74.9,70.1,29.91,SSW,202,2.0,8.0,85,0.00,,,-99.99,WeatherLink 5.6,2013-04-28 19:30:00,
2013-04-28 15:00:00,67.3,63.6,29.90,NW,315,1.0,9.0,88,0.05,,,-99.99,WeatherLink 5.6,2013-04-28 20:00:00,
2013-04-28 15:30:00,67.1,65.0,29.91,NNE,22,0.0,4.0,93,0.14,,,-99.99,WeatherLink 5.6,2013-04-28 20:30:00,
2013-04-28 16:00:00,68.6,66.2,29.88,NE,45,1.0,5.0,92,0.09,,,-99.99,WeatherLink 5.6,2013-04-28 21:00:00,
2013-04-28 16:30:00,69.6,66.2,29.88,NE,45,0.0,5.0,89,0.00,,,-99.99,WeatherLink 5.6,2013-04-28 21:30:00,
2013-04-28 17:00:00,71.3,66.6,29.88,NE,45,0.0,3.0,85,0.00,,,-99.99,WeatherLink 5.6,2013-04-28 22:00:00,
2013-04-28 17:30:00,72.1,66.3,29.87,NE,45,0.0,3.0,82,0.00,,,-99.99,WeatherLink 5.6,2013-04-28 22:30:00,
2013-04-28 18:00:00,71.8,64.9,29.86,ENE,67,1.0,6.0,79,0.00,,,-99.99,WeatherLink 5.6,2013-04-28 23:00:00,
2013-04-28 18:30:00,71.5,65.7,29.86,ENE,67,1.0,4.0,82,0.00,,,-99.99,WeatherLink 5.6,2013-04-28 23:30:00,
2013-04-28 19:00:00,70.6,65.9,29.86,ENE,67,1.0,4.0,85,0.00,,,-99.99,WeatherLink 5.6,2013-04-29 00:00:00,
2013-04-28 19:30:00,69.9,65.9,29.86,ENE,67,0.0,3.0,87,0.00,,,-99.99,WeatherLink 5.6,2013-04-29 00:30:00,
2013-04-28 20:00:00,69.4,65.4,29.87,North,-999,0.0,0.0,87,0.00,,,-99.99,WeatherLink 5.6,2013-04-29 01:00:00,
2013-04-28 20:30:00,68.9,65.8,29.88,North,-999,0.0,0.0,90,0.00,,,-99.99,WeatherLink 5.6,2013-04-29 01:30:00,
2013-04-28 21:00:00,68.8,66.1,29.89,ENE,67,0.0,1.0,91,0.00,,,-99.99,WeatherLink 5.6,2013-04-29 02:00:00,
2013-04-28 21:30:00,68.3,65.9,29.90,North,-999,0.0,0.0,92,0.00,,,-99.99,WeatherLink 5.6,2013-04-29 02:30:00,
2013-04-28 22:00:00,68.1,66.0,29.90,ENE,67,0.0,1.0,93,0.00,,,-99.99,WeatherLink 5.6,2013-04-29 03:00:00,
2013-04-28 22:30:00,67.8,65.4,29.89,NNW,337,0.0,3.0,92,0.00,,,-99.99,WeatherLink 5.6,2013-04-29 03:30:00,
2013-04-28 23:00:00,67.8,65.4,29.89,NNW,337,0.0,3.0,92,0.00,,,-99.99,WeatherLink 5.6,2013-04-29 04:00:00,
2013-04-28 23:30:00,67.8,65.4,29.89,NNW,337,0.0,2.0,92,0.00,,,-99.99,WeatherLink 5.6,2013-04-29 04:30:00,